Ambridge, Pennsylvania
Current Conditions -  °F | °C
As of 8:51 AM on Friday 19 Dec 2014 (Local Time) from KPIT Reporting Station
Light Snow Light Snow  
Wind Chill: 22°   Ceiling: 800
Heat Index: 28°   Visibility: 1.5mi
Dew Point: 26°   Wind: 6mph
Humidity: 92%   Direction: 260°W
Pressure: 30.19"   Gusts: NA
Location:  40.59°N, 80.23°W
Report Text: KPIT 191351Z 26005KT 1 1/2SM R28R/3500VP6000FT -SN BR OVC008 M02/M03 A3019 RMK AO2 FZDZE38SNB34 SLP247 P0000 I1000 T10221033
Loading
Personal Weather Stations






























Interactive Weather Map New forecast layout! Learn more

10-Day Weather Forecast

Advertisements
Track Severe Weather on mobile